NCAR-RAP Real-Time Weather Data

Output produced by METARs form (17 October 2018  17:13 UTC)
found at http://weather.rap.ucar.edu/surface/
 
 
ROAH 171700Z 04006KT 9999 FEW015 BKN040 23/18 Q1012 RMK 1CU015 6SC040 A2989
 
RODN 171556Z 02004KT 10SM BKN043 21/18 A2991 RMK AO2A SLP135 T02090181 $